createdAt,value
2023-05-11T00:00:37.559Z,8.30
2023-05-11T00:03:04.635Z,9.90
2023-05-11T00:05:31.671Z,7.80
2023-05-11T00:07:58.493Z,7.70
2023-05-11T00:10:25.268Z,7.50
2023-05-11T00:12:52.001Z,6.90
2023-05-11T00:15:19.048Z,7.40
2023-05-11T00:17:45.892Z,7.90
2023-05-11T00:20:12.738Z,9.10
2023-05-11T00:22:39.511Z,7.10
2023-05-11T00:25:07.069Z,7.00
2023-05-11T00:27:33.937Z,6.80
2023-05-11T00:30:00.799Z,11.60
2023-05-11T00:32:27.651Z,7.00
2023-05-11T00:34:54.657Z,5.60
2023-05-11T00:37:21.441Z,6.70
2023-05-11T00:39:48.263Z,8.10
2023-05-11T00:42:15.561Z,8.20
2023-05-11T00:44:42.301Z,7.00
2023-05-11T00:47:09.676Z,5.80
2023-05-11T00:49:37.031Z,6.50
2023-05-11T00:52:03.932Z,6.00
2023-05-11T00:54:31.368Z,5.70
2023-05-11T00:56:58.120Z,10.30
2023-05-11T00:59:24.818Z,7.60
2023-05-11T01:01:51.672Z,4.20
2023-05-11T01:04:18.478Z,10.10
2023-05-11T01:06:56.107Z,7.00
2023-05-11T01:10:01.430Z,6.30
2023-05-11T01:12:48.649Z,8.40
2023-05-11T01:15:21.900Z,8.30
2023-05-11T01:17:56.558Z,4.50
2023-05-11T01:20:26.367Z,7.40
2023-05-11T01:23:07.763Z,7.20
2023-05-11T01:26:00.756Z,7.30
2023-05-11T01:29:05.108Z,6.60
2023-05-11T01:31:32.462Z,7.20
2023-05-11T01:34:02.590Z,3.90
2023-05-11T01:36:36.247Z,6.00
2023-05-11T01:39:04.917Z,6.10
2023-05-11T01:41:32.637Z,7.10
2023-05-11T01:44:01.042Z,5.70
2023-05-11T01:46:30.845Z,7.70
2023-05-11T01:48:57.820Z,5.00
2023-05-11T01:51:26.196Z,6.00
2023-05-11T01:53:53.498Z,6.50
2023-05-11T01:56:21.618Z,6.30
2023-05-11T01:58:48.446Z,7.30
2023-05-11T02:01:17.988Z,7.30
2023-05-11T02:03:44.800Z,5.20
2023-05-11T02:06:11.643Z,6.60
2023-05-11T02:08:38.822Z,4.90
2023-05-11T02:11:05.901Z,4.40
2023-05-11T02:13:33.488Z,5.70
2023-05-11T02:16:00.385Z,7.20
2023-05-11T02:18:27.211Z,6.70
2023-05-11T02:20:57.644Z,5.80
2023-05-11T02:23:26.368Z,11.60
2023-05-11T02:25:53.204Z,5.40
2023-05-11T02:28:20.291Z,6.30
2023-05-11T02:30:48.623Z,7.30
2023-05-11T02:33:20.338Z,5.70
2023-05-11T02:35:47.538Z,9.40
2023-05-11T02:38:14.508Z,6.80
2023-05-11T02:40:51.647Z,7.80
2023-05-11T02:43:22.047Z,7.00
2023-05-11T02:45:54.265Z,6.50
2023-05-11T02:48:29.483Z,8.50
2023-05-11T02:50:57.156Z,7.00
2023-05-11T02:53:28.128Z,7.10
2023-05-11T02:55:55.344Z,6.30
2023-05-11T02:58:23.158Z,6.90
2023-05-11T03:00:56.518Z,6.40
2023-05-11T03:03:23.632Z,6.90
2023-05-11T03:05:51.337Z,7.10
2023-05-11T03:08:18.161Z,7.20
2023-05-11T03:10:44.966Z,8.30
2023-05-11T03:13:11.715Z,7.70
2023-05-11T03:15:38.695Z,11.60
2023-05-11T03:18:06.025Z,7.20
2023-05-11T03:20:34.108Z,5.80
2023-05-11T03:23:01.091Z,6.70
2023-05-11T03:25:29.171Z,9.40
2023-05-11T03:27:56.079Z,6.60
2023-05-11T03:30:23.069Z,7.30
2023-05-11T03:32:51.090Z,8.50
2023-05-11T03:35:17.938Z,9.40
2023-05-11T03:37:44.723Z,10.10
2023-05-11T03:40:12.571Z,7.50
2023-05-11T03:42:47.969Z,9.50
2023-05-11T03:45:14.747Z,10.30
2023-05-11T03:47:41.641Z,9.80
2023-05-11T03:50:10.253Z,14.10
2023-05-11T03:52:37.186Z,8.90
2023-05-11T03:55:04.513Z,8.90
2023-05-11T03:57:31.373Z,10.60
2023-05-11T03:59:58.182Z,10.70
2023-05-11T04:02:25.050Z,11.80
2023-05-11T04:04:53.192Z,8.90
2023-05-11T04:07:20.129Z,10.20
2023-05-11T04:09:47.373Z,10.60
2023-05-11T04:12:14.109Z,10.90
2023-05-11T04:14:42.205Z,10.10
2023-05-11T04:17:09.282Z,9.30
2023-05-11T04:19:36.034Z,7.50
2023-05-11T04:22:02.830Z,13.50
2023-05-11T04:24:30.807Z,9.70
2023-05-11T04:26:57.646Z,11.10
2023-05-11T04:29:25.134Z,11.50
2023-05-11T04:31:52.099Z,10.20
2023-05-11T04:34:19.759Z,11.90
2023-05-11T04:36:50.418Z,9.30
2023-05-11T04:39:19.203Z,8.30
2023-05-11T04:41:46.575Z,11.20
2023-05-11T04:44:14.811Z,11.30
2023-05-11T04:46:42.130Z,8.90
2023-05-11T04:49:09.402Z,7.70
2023-05-11T04:51:39.423Z,9.30
2023-05-11T04:54:06.655Z,8.10
2023-05-11T04:56:33.454Z,10.40
2023-05-11T04:59:00.338Z,10.20
2023-05-11T05:01:27.171Z,9.50
2023-05-11T05:03:55.101Z,11.00
2023-05-11T05:06:21.941Z,12.30
2023-05-11T05:08:48.675Z,9.60
2023-05-11T05:11:15.746Z,11.80
2023-05-11T05:13:42.989Z,9.70
2023-05-11T05:16:10.065Z,8.50
2023-05-11T05:18:37.098Z,9.00
2023-05-11T05:21:05.035Z,9.00
2023-05-11T05:23:31.996Z,10.10
2023-05-11T05:25:58.917Z,8.50
2023-05-11T05:28:26.331Z,9.80
2023-05-11T05:30:53.299Z,9.50
2023-05-11T05:33:20.369Z,8.60
2023-05-11T05:35:47.381Z,12.70
2023-05-11T05:38:15.600Z,8.40
2023-05-11T05:40:42.422Z,10.10
2023-05-11T05:43:09.227Z,8.20
2023-05-11T05:45:35.988Z,9.80
2023-05-11T05:48:03.015Z,9.70
2023-05-11T05:50:31.043Z,13.30
2023-05-11T05:52:57.882Z,10.10
2023-05-11T05:55:26.585Z,9.20
2023-05-11T05:57:54.457Z,11.80
2023-05-11T06:00:21.354Z,8.10
2023-05-11T06:02:53.385Z,10.30
2023-05-11T06:05:26.013Z,16.00
2023-05-11T06:08:08.375Z,11.20
2023-05-11T06:10:37.867Z,9.80
2023-05-11T06:13:05.006Z,9.90
2023-05-11T06:15:31.851Z,12.50
2023-05-11T06:18:03.522Z,8.70
2023-05-11T06:20:32.012Z,9.30
2023-05-11T06:22:58.814Z,11.40
2023-05-11T06:25:28.627Z,8.30
2023-05-11T06:27:56.815Z,7.00
2023-05-11T06:30:23.840Z,9.60
2023-05-11T06:32:50.996Z,4.60
2023-05-11T06:35:18.573Z,5.50
2023-05-11T06:37:45.674Z,6.30
2023-05-11T06:40:19.719Z,6.50
2023-05-11T06:42:46.791Z,8.10
2023-05-11T06:45:13.727Z,7.90
2023-05-11T06:47:42.945Z,5.40
2023-05-11T06:50:10.073Z,8.30
2023-05-11T06:52:37.823Z,6.30
2023-05-11T06:55:04.985Z,5.80
2023-05-11T06:57:31.842Z,6.30
2023-05-11T06:59:58.567Z,4.50
2023-05-11T07:02:25.376Z,6.50
2023-05-11T07:04:52.262Z,5.30
2023-05-11T07:07:19.015Z,4.80
2023-05-11T07:09:46.037Z,5.60
2023-05-11T07:12:12.874Z,5.90
2023-05-11T07:14:39.628Z,4.60
2023-05-11T07:17:06.471Z,9.40
2023-05-11T07:19:33.604Z,4.60
2023-05-11T07:22:02.206Z,6.70
2023-05-11T07:24:29.037Z,5.40
2023-05-11T07:26:57.881Z,5.80
2023-05-11T07:29:24.636Z,6.30
2023-05-11T07:31:51.842Z,3.80
2023-05-11T07:34:19.651Z,5.40
2023-05-11T07:36:51.438Z,5.90
2023-05-11T07:39:18.231Z,5.10
2023-05-11T07:41:46.253Z,3.40
2023-05-11T07:44:13.105Z,4.30
2023-05-11T07:46:39.877Z,5.10
2023-05-11T07:49:15.721Z,6.90
2023-05-11T07:51:52.473Z,5.40
2023-05-11T07:54:21.031Z,6.00
2023-05-11T07:56:51.386Z,6.80
2023-05-11T07:59:18.156Z,4.10
2023-05-11T08:01:44.949Z,5.30
2023-05-11T08:04:11.688Z,6.00
2023-05-11T08:06:38.561Z,7.10
2023-05-11T08:09:07.208Z,4.20
2023-05-11T08:11:34.345Z,6.80
2023-05-11T08:14:01.134Z,5.30
2023-05-11T08:16:27.981Z,4.40
2023-05-11T08:18:55.007Z,6.10
2023-05-11T08:21:21.811Z,5.70
2023-05-11T08:23:48.907Z,4.80
2023-05-11T08:26:15.671Z,5.10
2023-05-11T08:28:42.483Z,3.20
2023-05-11T08:31:09.258Z,5.00
2023-05-11T08:33:38.727Z,3.10
2023-05-11T08:36:08.877Z,3.40
2023-05-11T08:38:35.922Z,5.70
2023-05-11T08:41:02.895Z,4.50
2023-05-11T08:43:29.769Z,3.50
2023-05-11T08:46:04.462Z,3.60
2023-05-11T08:48:31.506Z,4.40
2023-05-11T08:50:58.951Z,3.70
2023-05-11T08:53:25.714Z,4.00
2023-05-11T08:55:52.622Z,3.30
2023-05-11T08:58:22.206Z,5.80
2023-05-11T09:00:49.300Z,3.70
2023-05-11T09:03:17.664Z,3.50
2023-05-11T09:05:46.708Z,4.60
2023-05-11T09:08:14.057Z,4.30
2023-05-11T09:10:44.214Z,4.20
2023-05-11T09:13:12.116Z,3.90
2023-05-11T09:15:38.984Z,4.60
2023-05-11T09:18:06.053Z,5.00
2023-05-11T09:20:33.577Z,3.90
2023-05-11T09:23:00.516Z,2.80
2023-05-11T09:25:31.244Z,3.10
2023-05-11T09:27:58.146Z,3.30
2023-05-11T09:30:25.019Z,4.50
2023-05-11T09:32:56.499Z,4.00
2023-05-11T09:35:26.461Z,3.40
2023-05-11T09:38:12.544Z,5.30
2023-05-11T09:40:51.508Z,4.50
2023-05-11T09:43:26.364Z,3.70
2023-05-11T09:45:58.355Z,3.40
2023-05-11T09:48:32.778Z,2.70
2023-05-11T09:51:07.121Z,3.00
2023-05-11T09:53:36.325Z,3.00
2023-05-11T09:56:05.659Z,3.10
2023-05-11T09:58:52.588Z,3.70
2023-05-11T10:01:29.747Z,4.10
2023-05-11T10:04:08.898Z,2.90
2023-05-11T10:06:50.177Z,3.90
2023-05-11T10:09:17.504Z,3.20
2023-05-11T10:11:45.715Z,3.20
2023-05-11T10:14:13.519Z,3.30
2023-05-11T10:16:41.477Z,3.40
2023-05-11T10:19:08.408Z,3.00
2023-05-11T10:21:35.464Z,3.60
2023-05-11T10:24:03.916Z,3.80
2023-05-11T10:26:32.128Z,3.60
2023-05-11T10:29:00.897Z,3.70
2023-05-11T10:31:29.353Z,5.30
2023-05-11T10:33:57.715Z,3.00
2023-05-11T10:36:25.264Z,3.60
2023-05-11T10:38:52.019Z,3.50
2023-05-11T10:41:48.990Z,3.90
2023-05-11T10:47:14.866Z,3.60
2023-05-11T10:50:12.375Z,3.00
2023-05-11T10:52:50.504Z,3.40
2023-05-11T10:55:43.354Z,3.00
2023-05-11T10:58:18.081Z,3.40
2023-05-11T11:01:00.306Z,4.10
2023-05-11T11:03:27.308Z,3.20
2023-05-11T11:05:54.144Z,3.50
2023-05-11T11:08:20.904Z,2.90
2023-05-11T11:10:54.536Z,4.60
2023-05-11T11:13:23.403Z,5.30
2023-05-11T11:15:57.927Z,3.50
2023-05-11T11:18:28.688Z,3.40
2023-05-11T11:20:57.003Z,3.00
2023-05-11T11:23:42.937Z,3.40
2023-05-11T11:26:16.364Z,3.30
2023-05-11T11:29:05.335Z,3.30
2023-05-11T11:31:35.003Z,3.20
2023-05-11T11:34:29.985Z,4.00
2023-05-11T11:37:02.457Z,3.60
2023-05-11T11:39:41.967Z,4.10
2023-05-11T11:42:10.282Z,3.80
2023-05-11T11:44:37.964Z,2.90
2023-05-11T11:47:20.384Z,3.40
2023-05-11T11:52:26.924Z,6.10
2023-05-11T11:54:54.596Z,3.40
2023-05-11T11:57:32.716Z,3.50
2023-05-11T11:59:59.946Z,3.60
2023-05-11T12:02:27.639Z,3.50
2023-05-11T12:04:58.522Z,3.30
2023-05-11T12:07:25.817Z,3.70
2023-05-11T12:09:53.136Z,3.50
2023-05-11T12:12:20.349Z,2.90
2023-05-11T12:14:50.874Z,4.40
2023-05-11T12:17:35.961Z,3.20
2023-05-11T12:20:16.860Z,4.50
2023-05-11T12:22:52.773Z,3.90
2023-05-11T12:25:20.399Z,4.80
2023-05-11T12:27:47.835Z,3.20
2023-05-11T12:30:42.578Z,4.10
2023-05-11T12:33:09.518Z,3.40
2023-05-11T12:35:36.886Z,4.00
2023-05-11T12:38:03.652Z,5.00
2023-05-11T12:40:30.992Z,3.40
2023-05-11T12:42:59.728Z,2.90
2023-05-11T12:45:27.201Z,4.80
2023-05-11T12:47:54.902Z,5.70
2023-05-11T12:50:21.840Z,4.70
2023-05-11T12:52:50.512Z,3.20
2023-05-11T12:55:30.024Z,3.90
2023-05-11T12:58:15.285Z,3.40
2023-05-11T13:00:52.323Z,6.70
2023-05-11T13:03:29.707Z,4.90
2023-05-11T13:06:09.575Z,3.90
2023-05-11T13:08:37.204Z,4.40
2023-05-11T13:11:36.918Z,3.50
2023-05-11T13:14:15.819Z,4.90
2023-05-11T13:16:42.813Z,9.00
2023-05-11T13:19:09.962Z,3.40
2023-05-11T13:21:36.965Z,4.00
2023-05-11T13:24:04.334Z,3.10
2023-05-11T13:26:33.534Z,3.80
2023-05-11T13:29:09.386Z,2.90
2023-05-11T13:31:45.939Z,3.70
2023-05-11T13:34:12.905Z,5.90
2023-05-11T13:36:40.101Z,3.80
2023-05-11T13:39:07.208Z,4.20
2023-05-11T13:41:34.106Z,3.20
2023-05-11T13:44:00.969Z,2.80
2023-05-11T13:46:27.898Z,4.40
2023-05-11T13:48:55.387Z,5.60
2023-05-11T13:51:23.688Z,3.70
2023-05-11T13:53:50.504Z,3.30
2023-05-11T13:56:19.997Z,5.50
2023-05-11T13:58:46.793Z,4.60
2023-05-11T14:01:13.557Z,7.90
2023-05-11T14:03:40.510Z,4.60
2023-05-11T14:06:07.421Z,7.00
2023-05-11T14:08:34.147Z,3.00
2023-05-11T14:11:01.100Z,10.20
2023-05-11T14:13:27.925Z,6.60
2023-05-11T14:15:54.731Z,5.30
2023-05-11T14:18:21.685Z,4.90
2023-05-11T14:20:48.757Z,3.20
2023-05-11T14:23:15.564Z,4.30
2023-05-11T14:25:42.311Z,3.50
2023-05-11T14:28:09.174Z,4.20
2023-05-11T14:30:36.363Z,4.70
2023-05-11T14:33:03.201Z,6.20
2023-05-11T14:35:29.945Z,4.90
2023-05-11T14:37:57.010Z,4.30
2023-05-11T14:40:23.835Z,3.60
2023-05-11T14:42:50.572Z,7.70
2023-05-11T14:45:17.485Z,4.90
2023-05-11T14:47:44.815Z,4.00
2023-05-11T14:50:12.817Z,4.00
2023-05-11T14:52:39.556Z,4.60
2023-05-11T14:55:06.836Z,3.30
2023-05-11T14:57:33.692Z,2.30
2023-05-11T15:00:00.989Z,4.60
2023-05-11T15:02:29.008Z,3.20
2023-05-11T15:04:56.021Z,3.40
2023-05-11T15:07:22.813Z,3.90
2023-05-11T15:09:50.846Z,5.10
2023-05-11T15:12:18.104Z,6.80
2023-05-11T15:14:44.881Z,5.10
2023-05-11T15:17:11.746Z,6.00
2023-05-11T15:19:38.669Z,5.00
2023-05-11T15:22:05.967Z,6.00
2023-05-11T15:24:34.093Z,4.40
2023-05-11T15:27:00.931Z,4.60
2023-05-11T15:29:27.980Z,5.80
2023-05-11T15:31:55.033Z,5.90
2023-05-11T15:34:22.048Z,5.30
2023-05-11T15:36:49.937Z,6.30
2023-05-11T15:39:19.746Z,5.20
2023-05-11T15:41:46.712Z,4.00
2023-05-11T15:44:14.290Z,7.00
2023-05-11T15:46:41.191Z,5.30
2023-05-11T15:49:08.135Z,3.90
2023-05-11T15:51:35.864Z,3.70
2023-05-11T15:54:02.850Z,4.70
2023-05-11T15:56:29.643Z,3.60
2023-05-11T15:58:56.426Z,3.70
2023-05-11T16:01:23.186Z,3.80
2023-05-11T16:03:50.017Z,4.50
2023-05-11T16:06:16.811Z,4.40
2023-05-11T16:08:44.948Z,3.80
2023-05-11T16:11:11.757Z,3.50
2023-05-11T16:13:38.620Z,3.80
2023-05-11T16:16:06.531Z,7.00
2023-05-11T16:18:33.283Z,6.70
2023-05-11T16:21:00.014Z,7.10
2023-05-11T16:23:26.884Z,6.20
2023-05-11T16:25:53.711Z,3.50
2023-05-11T16:28:20.566Z,6.40
2023-05-11T16:30:47.655Z,6.00
2023-05-11T16:33:14.632Z,5.20
2023-05-11T16:35:41.488Z,3.00
2023-05-11T16:38:17.891Z,3.60
2023-05-11T16:40:44.838Z,4.00
2023-05-11T16:43:11.654Z,5.60
2023-05-11T16:45:38.473Z,5.50
2023-05-11T16:48:05.902Z,6.40
2023-05-11T16:50:32.894Z,6.40
2023-05-11T16:53:00.881Z,4.90
2023-05-11T16:55:28.175Z,4.30
2023-05-11T16:57:55.235Z,8.10
2023-05-11T17:00:22.262Z,6.20
2023-05-11T17:02:49.378Z,6.00
2023-05-11T17:05:18.033Z,14.00
2023-05-11T17:07:46.389Z,7.70
2023-05-11T17:10:13.276Z,4.60
2023-05-11T17:12:40.502Z,6.30
2023-05-11T17:15:10.349Z,6.10
2023-05-11T17:17:38.206Z,8.30
2023-05-11T17:20:07.734Z,7.00
2023-05-11T17:22:35.018Z,11.20
2023-05-11T17:25:03.959Z,6.40
2023-05-11T17:27:35.656Z,11.00
2023-05-11T17:30:02.442Z,5.90
2023-05-11T17:32:29.690Z,11.40
2023-05-11T17:34:57.026Z,7.00
2023-05-11T17:37:31.657Z,8.70
2023-05-11T17:40:00.168Z,8.80
2023-05-11T17:42:27.256Z,16.40
2023-05-11T17:44:55.316Z,11.60
2023-05-11T17:47:22.552Z,14.20
2023-05-11T17:49:49.677Z,19.30
2023-05-11T17:52:17.202Z,18.00
2023-05-11T17:54:44.173Z,24.50
2023-05-11T17:57:11.000Z,16.60
2023-05-11T17:59:37.811Z,14.80
2023-05-11T18:02:04.912Z,14.50
2023-05-11T18:04:31.831Z,15.00
2023-05-11T18:06:59.161Z,14.60
2023-05-11T18:09:25.964Z,19.70
2023-05-11T18:11:53.033Z,21.60
2023-05-11T18:14:19.961Z,19.90
2023-05-11T18:16:49.742Z,20.10
2023-05-11T18:19:18.267Z,17.10
2023-05-11T18:21:45.571Z,20.20
2023-05-11T18:24:14.700Z,17.10
2023-05-11T18:26:41.788Z,13.80
2023-05-11T18:29:08.632Z,19.00
2023-05-11T18:31:35.709Z,17.40
2023-05-11T18:34:03.681Z,12.70
2023-05-11T18:36:30.510Z,13.30
2023-05-11T18:38:57.579Z,13.30
2023-05-11T18:41:24.404Z,18.00
2023-05-11T18:43:52.849Z,25.30
2023-05-11T18:46:21.575Z,13.40
2023-05-11T18:48:52.865Z,9.80
2023-05-11T18:51:22.551Z,16.70
2023-05-11T18:53:49.968Z,13.20
2023-05-11T18:56:17.716Z,12.10
2023-05-11T18:58:45.610Z,11.50
2023-05-11T19:01:12.758Z,14.10
2023-05-11T19:03:39.631Z,15.40
2023-05-11T19:06:07.745Z,11.20
2023-05-11T19:08:34.701Z,10.40
2023-05-11T19:11:08.446Z,9.10
2023-05-11T19:13:35.384Z,10.70
2023-05-11T19:16:03.476Z,14.70
2023-05-11T19:18:30.927Z,8.90
2023-05-11T19:20:58.000Z,10.00
2023-05-11T19:23:24.790Z,9.40
2023-05-11T19:25:52.049Z,10.00
2023-05-11T19:28:18.997Z,9.10
2023-05-11T19:30:45.790Z,10.80
2023-05-11T19:33:12.764Z,10.50
2023-05-11T19:35:40.592Z,9.90
2023-05-11T19:38:07.423Z,10.80
2023-05-11T19:40:45.941Z,10.00
2023-05-11T19:43:13.715Z,10.00
2023-05-11T19:45:43.572Z,10.70
2023-05-11T19:48:10.470Z,9.50
2023-05-11T19:50:37.237Z,10.10
2023-05-11T19:53:04.145Z,9.40
2023-05-11T19:55:31.225Z,8.70
2023-05-11T19:57:58.051Z,9.10
2023-05-11T20:00:25.857Z,9.60
2023-05-11T20:02:53.173Z,10.00
2023-05-11T20:05:20.184Z,11.40
2023-05-11T20:07:47.819Z,9.00
2023-05-11T20:10:14.572Z,10.80
2023-05-11T20:12:41.534Z,8.80
2023-05-11T20:15:09.828Z,13.30
2023-05-11T20:17:36.755Z,11.40
2023-05-11T20:20:04.063Z,8.50
2023-05-11T20:22:31.476Z,13.10
2023-05-11T20:24:58.216Z,18.70
2023-05-11T20:27:25.128Z,11.40
2023-05-11T20:29:52.009Z,15.40
2023-05-11T20:32:18.810Z,13.30
2023-05-11T20:34:45.599Z,11.10
2023-05-11T20:37:12.932Z,10.80
2023-05-11T20:39:39.842Z,12.00
2023-05-11T20:42:06.693Z,13.00
2023-05-11T20:44:34.253Z,9.40
2023-05-11T20:47:01.059Z,8.20
2023-05-11T20:49:38.304Z,9.70
2023-05-11T20:52:07.465Z,8.70
2023-05-11T20:54:35.818Z,8.80
2023-05-11T20:57:04.045Z,8.20
2023-05-11T21:02:02.281Z,9.90
2023-05-11T21:04:31.491Z,10.10
2023-05-11T21:06:58.440Z,9.20
2023-05-11T21:09:25.556Z,7.90
2023-05-11T21:11:52.473Z,9.40
2023-05-11T21:14:19.272Z,6.90
2023-05-11T21:16:46.240Z,9.70
2023-05-11T21:19:13.030Z,8.80
2023-05-11T21:21:39.819Z,10.90
2023-05-11T21:24:06.779Z,8.30
2023-05-11T21:26:33.585Z,7.90
2023-05-11T21:29:00.584Z,7.20
2023-05-11T21:31:27.504Z,11.20
2023-05-11T21:33:54.514Z,7.50
2023-05-11T21:36:22.364Z,9.10
2023-05-11T21:38:49.244Z,7.70
2023-05-11T21:41:16.986Z,7.30
2023-05-11T21:43:44.302Z,9.40
2023-05-11T21:46:11.106Z,6.20
2023-05-11T21:48:37.948Z,9.10
2023-05-11T21:51:04.988Z,7.00
2023-05-11T21:53:31.808Z,8.40
2023-05-11T21:55:58.616Z,8.90
2023-05-11T21:58:26.522Z,7.70
2023-05-11T22:00:55.123Z,6.70
2023-05-11T22:03:22.434Z,6.80
2023-05-11T22:05:49.529Z,7.00
2023-05-11T22:08:16.474Z,7.80
2023-05-11T22:10:43.361Z,6.90
2023-05-11T22:13:10.437Z,8.60
2023-05-11T22:15:37.270Z,8.90
2023-05-11T22:18:05.134Z,7.50
2023-05-11T22:20:32.170Z,7.80
2023-05-11T22:22:59.578Z,7.30
2023-05-11T22:25:26.656Z,9.60
2023-05-11T22:27:53.648Z,8.20
2023-05-11T22:30:20.832Z,10.40
2023-05-11T22:32:47.948Z,10.30
2023-05-11T22:35:14.906Z,11.30
2023-05-11T22:37:41.786Z,8.20
2023-05-11T22:40:10.177Z,8.60
2023-05-11T22:42:37.729Z,9.00
2023-05-11T22:45:05.201Z,9.60
2023-05-11T22:47:32.075Z,8.90
2023-05-11T22:49:58.988Z,7.60
2023-05-11T22:52:25.858Z,9.40
2023-05-11T22:54:57.975Z,9.10
2023-05-11T22:57:28.012Z,9.50
2023-05-11T22:59:54.792Z,9.00
2023-05-11T23:04:40.515Z,8.10
2023-05-11T23:07:07.955Z,8.00
2023-05-11T23:09:35.073Z,9.80
2023-05-11T23:12:01.933Z,7.80
2023-05-11T23:14:28.924Z,9.40
2023-05-11T23:16:55.666Z,9.10
2023-05-11T23:19:22.511Z,9.30
2023-05-11T23:21:49.396Z,9.70
2023-05-11T23:24:16.222Z,7.60
2023-05-11T23:26:43.138Z,8.50
2023-05-11T23:29:10.328Z,8.60
2023-05-11T23:31:38.086Z,7.80
2023-05-11T23:34:05.058Z,9.70
2023-05-11T23:36:32.356Z,6.40
2023-05-11T23:38:59.541Z,9.00
2023-05-11T23:41:26.697Z,9.60
2023-05-11T23:43:53.423Z,8.60
2023-05-11T23:46:20.274Z,8.30
2023-05-11T23:48:47.803Z,7.70
2023-05-11T23:51:15.422Z,8.00
2023-05-11T23:53:42.385Z,10.00
2023-05-11T23:56:09.184Z,8.60
2023-05-11T23:58:36.144Z,10.60
